createdAt,value
2023-04-28T00:01:52.350Z,82.69
2023-04-28T00:04:19.984Z,83.18
2023-04-28T00:06:48.507Z,82.82
2023-04-28T00:09:15.929Z,83.54
2023-04-28T00:11:45.429Z,83.46
2023-04-28T00:14:13.601Z,83.55
2023-04-28T00:16:41.662Z,83.67
2023-04-28T00:19:09.525Z,83.85
2023-04-28T00:21:36.598Z,84.29
2023-04-28T00:24:03.995Z,83.32
2023-04-28T00:26:31.200Z,84.38
2023-04-28T00:28:58.242Z,84.59
2023-04-28T00:31:25.566Z,84.45
2023-04-28T00:33:52.556Z,85.02
2023-04-28T00:36:19.494Z,84.23
2023-04-28T00:38:46.403Z,84.39
2023-04-28T00:41:14.564Z,83.86
2023-04-28T00:43:48.580Z,83.63
2023-04-28T00:46:24.668Z,83.71
2023-04-28T00:48:52.036Z,83.83
2023-04-28T00:51:19.486Z,84.06
2023-04-28T00:53:46.620Z,84.72
2023-04-28T00:56:13.818Z,84.65
2023-04-28T00:58:41.611Z,85.27
2023-04-28T01:01:10.513Z,86.13
2023-04-28T01:03:40.203Z,85.73
2023-04-28T01:06:09.403Z,85.66
2023-04-28T01:08:38.480Z,85.91
2023-04-28T01:11:05.688Z,86.13
2023-04-28T01:13:32.880Z,86.16
2023-04-28T01:16:00.749Z,86.60
2023-04-28T01:18:28.082Z,86.65
2023-04-28T01:20:54.968Z,86.71
2023-04-28T01:23:22.302Z,86.76
2023-04-28T01:25:49.356Z,86.71
2023-04-28T01:28:17.059Z,87.03
2023-04-28T01:30:44.899Z,87.26
2023-04-28T01:33:12.089Z,86.57
2023-04-28T01:35:39.328Z,86.50
2023-04-28T01:38:06.580Z,86.78
2023-04-28T01:40:33.771Z,87.04
2023-04-28T01:43:01.031Z,86.62
2023-04-28T01:45:28.071Z,86.90
2023-04-28T01:47:55.289Z,87.39
2023-04-28T01:50:22.584Z,87.40
2023-04-28T01:52:49.535Z,86.88
2023-04-28T01:55:16.877Z,87.16
2023-04-28T01:57:43.821Z,87.17
2023-04-28T02:00:11.637Z,86.90
2023-04-28T02:02:38.941Z,87.36
2023-04-28T02:05:07.015Z,87.65
2023-04-28T02:07:34.429Z,87.70
2023-04-28T02:10:01.984Z,87.88
2023-04-28T02:12:29.690Z,88.30
2023-04-28T02:14:56.948Z,88.69
2023-04-28T02:17:24.297Z,88.79
2023-04-28T02:19:56.509Z,88.42
2023-04-28T02:22:23.894Z,88.76
2023-04-28T02:24:51.654Z,88.68
2023-04-28T02:27:19.149Z,88.46
2023-04-28T02:29:46.652Z,88.39
2023-04-28T02:32:14.179Z,88.39
2023-04-28T02:34:41.316Z,88.60
2023-04-28T02:37:08.264Z,88.75
2023-04-28T02:39:35.326Z,88.69
2023-04-28T02:42:05.480Z,89.36
2023-04-28T02:44:32.398Z,89.61
2023-04-28T02:46:59.556Z,89.95
2023-04-28T02:49:26.951Z,89.59
2023-04-28T02:51:54.555Z,89.71
2023-04-28T02:54:28.000Z,90.25
2023-04-28T02:56:56.085Z,90.51
2023-04-28T02:59:27.277Z,90.40
2023-04-28T03:01:54.406Z,90.19
2023-04-28T03:04:22.309Z,90.00
2023-04-28T03:06:49.611Z,89.44
2023-04-28T03:09:16.787Z,89.89
2023-04-28T03:11:44.260Z,90.12
2023-04-28T03:14:11.536Z,90.22
2023-04-28T03:16:38.723Z,90.68
2023-04-28T03:19:05.997Z,90.87
2023-04-28T03:21:33.066Z,90.63
2023-04-28T03:24:00.314Z,90.57
2023-04-28T03:26:27.320Z,91.08
2023-04-28T03:28:54.677Z,91.19
2023-04-28T03:31:21.907Z,91.23
2023-04-28T03:33:49.003Z,91.36
2023-04-28T03:36:16.054Z,91.12
2023-04-28T03:38:42.966Z,91.07
2023-04-28T03:41:10.589Z,91.73
2023-04-28T03:43:37.621Z,91.68
2023-04-28T03:46:05.022Z,91.39
2023-04-28T03:48:32.066Z,91.25
2023-04-28T03:50:59.413Z,91.46
2023-04-28T03:53:26.396Z,91.11
2023-04-28T03:55:53.559Z,91.04
2023-04-28T03:58:21.077Z,91.07
2023-04-28T04:00:48.201Z,90.85
2023-04-28T04:03:15.414Z,90.71
2023-04-28T04:05:43.145Z,91.27
2023-04-28T04:08:11.072Z,90.68
2023-04-28T04:10:37.960Z,90.63
2023-04-28T04:13:05.000Z,90.66
2023-04-28T04:15:32.206Z,90.52
2023-04-28T04:17:59.424Z,90.67
2023-04-28T04:20:26.648Z,90.34
2023-04-28T04:22:53.769Z,90.16
2023-04-28T04:25:23.362Z,89.67
2023-04-28T04:27:51.035Z,89.01
2023-04-28T04:30:18.220Z,88.72
2023-04-28T04:32:45.609Z,88.22
2023-04-28T04:35:12.635Z,88.09
2023-04-28T04:37:40.137Z,87.90
2023-04-28T04:40:08.088Z,87.65
2023-04-28T04:42:35.616Z,87.15
2023-04-28T04:45:02.574Z,86.83
2023-04-28T04:47:30.077Z,86.35
2023-04-28T04:49:57.249Z,86.17
2023-04-28T04:52:24.687Z,86.02
2023-04-28T04:54:51.850Z,86.01
2023-04-28T04:57:19.129Z,85.54
2023-04-28T04:59:46.524Z,85.03
2023-04-28T05:02:13.665Z,85.29
2023-04-28T05:04:41.068Z,85.32
2023-04-28T05:07:08.204Z,84.68
2023-04-28T05:09:35.493Z,84.23
2023-04-28T05:12:02.508Z,83.35
2023-04-28T05:14:29.912Z,82.56
2023-04-28T05:16:57.191Z,81.98
2023-04-28T05:19:24.590Z,81.60
2023-04-28T05:21:54.686Z,81.63
2023-04-28T05:24:24.802Z,81.56
2023-04-28T05:26:52.858Z,80.98
2023-04-28T05:29:23.220Z,80.58
2023-04-28T05:31:50.540Z,79.41
2023-04-28T05:34:18.003Z,78.83
2023-04-28T05:36:45.269Z,78.08
2023-04-28T05:39:12.540Z,76.97
2023-04-28T05:41:39.468Z,76.24
2023-04-28T05:44:06.360Z,76.10
2023-04-28T05:46:33.297Z,75.31
2023-04-28T05:49:00.862Z,73.38
2023-04-28T05:51:27.890Z,73.41
2023-04-28T05:53:55.111Z,73.98
2023-04-28T05:56:22.172Z,72.35
2023-04-28T05:58:50.847Z,71.63
2023-04-28T06:01:18.331Z,71.82
2023-04-28T06:03:45.830Z,70.98
2023-04-28T06:06:13.264Z,70.17
2023-04-28T06:08:40.542Z,69.45
2023-04-28T06:11:07.546Z,70.25
2023-04-28T06:13:34.787Z,69.18
2023-04-28T06:16:01.977Z,69.12
2023-04-28T06:18:32.758Z,67.65
2023-04-28T06:20:59.839Z,67.16
2023-04-28T06:23:26.890Z,67.12
2023-04-28T06:25:53.956Z,67.27
2023-04-28T06:28:20.947Z,67.37
2023-04-28T06:30:48.046Z,67.35
2023-04-28T06:33:15.098Z,67.19
2023-04-28T06:35:42.116Z,66.71
2023-04-28T06:38:09.128Z,66.84
2023-04-28T06:40:36.037Z,66.79
2023-04-28T06:43:03.259Z,64.66
2023-04-28T06:45:30.110Z,65.05
2023-04-28T06:47:57.512Z,64.71
2023-04-28T06:50:25.109Z,63.04
2023-04-28T06:52:52.287Z,60.98
2023-04-28T06:55:19.447Z,60.77
2023-04-28T06:57:46.729Z,60.81
2023-04-28T07:00:14.462Z,59.68
2023-04-28T07:02:41.517Z,59.20
2023-04-28T07:05:08.979Z,58.04
2023-04-28T07:07:38.689Z,57.49
2023-04-28T07:10:07.110Z,58.62
2023-04-28T07:12:34.060Z,56.25
2023-04-28T07:15:00.963Z,56.91
2023-04-28T07:17:27.970Z,56.12
2023-04-28T07:19:54.970Z,56.98
2023-04-28T07:22:22.123Z,57.76
2023-04-28T07:24:49.099Z,57.65
2023-04-28T07:27:16.230Z,54.00
2023-04-28T07:29:43.228Z,54.41
2023-04-28T07:32:10.848Z,54.85
2023-04-28T07:34:38.139Z,53.73
2023-04-28T07:37:05.846Z,52.99
2023-04-28T07:39:34.935Z,52.38
2023-04-28T07:42:03.288Z,51.31
2023-04-28T07:44:31.671Z,50.07
2023-04-28T07:47:00.464Z,48.33
2023-04-28T07:49:29.394Z,48.49
2023-04-28T07:51:56.719Z,46.91
2023-04-28T07:54:24.096Z,48.18
2023-04-28T07:56:51.438Z,48.09
2023-04-28T07:59:18.576Z,46.89
2023-04-28T08:01:45.605Z,47.07
2023-04-28T08:04:12.706Z,45.89
2023-04-28T08:06:40.290Z,47.12
2023-04-28T08:09:07.946Z,46.43
2023-04-28T08:11:34.987Z,46.33
2023-04-28T08:14:13.363Z,46.52
2023-04-28T08:16:41.524Z,46.64
2023-04-28T08:19:08.779Z,46.72
2023-04-28T08:21:35.787Z,46.57
2023-04-28T08:24:02.661Z,47.61
2023-04-28T08:26:29.589Z,45.63
2023-04-28T08:28:56.852Z,45.30
2023-04-28T08:31:24.237Z,42.75
2023-04-28T08:33:51.576Z,41.71
2023-04-28T08:36:18.884Z,42.43
2023-04-28T08:38:46.352Z,40.16
2023-04-28T08:41:15.889Z,41.01
2023-04-28T08:43:43.482Z,39.76
2023-04-28T08:46:11.181Z,40.19
2023-04-28T08:48:47.596Z,39.04
2023-04-28T08:51:16.988Z,37.19
2023-04-28T08:54:15.006Z,37.82
2023-04-28T08:56:39.260Z,37.34
2023-04-28T08:59:06.707Z,37.16
2023-04-28T09:01:33.827Z,37.38
2023-04-28T09:04:03.177Z,36.28
2023-04-28T09:06:36.521Z,35.08
2023-04-28T09:09:22.630Z,34.95
2023-04-28T09:11:55.649Z,33.13
2023-04-28T09:14:24.039Z,33.49
2023-04-28T09:16:52.175Z,32.16
2023-04-28T09:19:19.572Z,32.74
2023-04-28T09:21:51.885Z,32.53
2023-04-28T09:24:35.256Z,32.25
2023-04-28T09:27:04.363Z,32.14
2023-04-28T09:29:32.191Z,32.40
2023-04-28T09:32:21.709Z,32.72
2023-04-28T09:34:51.351Z,32.92
2023-04-28T09:37:20.395Z,31.93
2023-04-28T09:39:49.753Z,31.64
2023-04-28T09:42:40.006Z,30.53
2023-04-28T09:45:12.256Z,31.45
2023-04-28T09:47:46.491Z,31.26
2023-04-28T09:50:17.427Z,31.54
2023-04-28T09:52:57.023Z,31.53
2023-04-28T09:55:24.570Z,31.26
2023-04-28T09:57:55.020Z,31.22
2023-04-28T10:00:23.532Z,31.02
2023-04-28T10:02:51.961Z,31.41
2023-04-28T10:05:22.234Z,31.22
2023-04-28T10:07:50.341Z,31.59
2023-04-28T10:10:18.032Z,32.08
2023-04-28T10:12:45.921Z,32.13
2023-04-28T10:15:13.621Z,31.93
2023-04-28T10:17:40.959Z,31.01
2023-04-28T10:20:08.878Z,30.29
2023-04-28T10:23:03.577Z,29.81
2023-04-28T10:25:32.714Z,30.92
2023-04-28T10:28:01.265Z,31.10
2023-04-28T10:30:30.170Z,30.87
2023-04-28T10:33:06.823Z,31.30
2023-04-28T10:35:36.426Z,30.94
2023-04-28T10:38:03.630Z,31.69
2023-04-28T10:40:39.092Z,30.00
2023-04-28T10:43:08.576Z,29.83
2023-04-28T10:45:58.049Z,29.95
2023-04-28T10:48:34.627Z,28.55
2023-04-28T10:51:04.841Z,26.66
2023-04-28T10:53:52.134Z,26.20
2023-04-28T10:56:25.458Z,25.31
2023-04-28T10:58:52.731Z,25.91
2023-04-28T11:01:20.333Z,25.44
2023-04-28T11:03:48.327Z,24.84
2023-04-28T11:06:32.614Z,25.66
2023-04-28T11:09:02.467Z,26.26
2023-04-28T11:11:39.051Z,28.15
2023-04-28T11:14:19.224Z,29.06
2023-04-28T11:17:03.231Z,29.16
2023-04-28T11:19:39.220Z,29.12
2023-04-28T11:22:11.978Z,29.20
2023-04-28T11:24:39.288Z,28.72
2023-04-28T11:27:06.136Z,29.54
2023-04-28T11:29:38.035Z,29.03
2023-04-28T11:32:10.267Z,26.72
2023-04-28T11:34:37.961Z,28.20
2023-04-28T11:37:07.261Z,29.91
2023-04-28T11:39:35.176Z,30.37
2023-04-28T11:42:09.518Z,30.46
2023-04-28T11:44:36.960Z,30.71
2023-04-28T11:47:05.830Z,28.75
2023-04-28T11:49:44.669Z,26.83
2023-04-28T11:52:12.577Z,25.78
2023-04-28T11:54:42.517Z,26.63
2023-04-28T11:57:21.969Z,27.91
2023-04-28T11:59:51.141Z,28.42
2023-04-28T12:02:29.746Z,29.03
2023-04-28T12:05:05.581Z,29.70
2023-04-28T12:07:42.449Z,28.73
2023-04-28T12:10:17.037Z,29.03
2023-04-28T12:12:51.772Z,28.41
2023-04-28T12:15:22.388Z,28.97
2023-04-28T12:17:51.147Z,28.42
2023-04-28T12:20:36.725Z,28.55
2023-04-28T12:23:03.968Z,29.75
2023-04-28T12:25:31.191Z,29.85
2023-04-28T12:28:05.283Z,30.23
2023-04-28T12:30:34.551Z,30.87
2023-04-28T12:33:02.082Z,31.65
2023-04-28T12:35:30.114Z,31.87
2023-04-28T12:37:59.091Z,31.97
2023-04-28T12:40:26.508Z,32.00
2023-04-28T12:42:53.798Z,31.64
2023-04-28T12:45:21.204Z,31.93
2023-04-28T12:47:48.500Z,31.39
2023-04-28T12:50:16.848Z,31.46
2023-04-28T12:52:43.784Z,31.05
2023-04-28T12:55:10.810Z,31.25
2023-04-28T12:57:39.668Z,31.04
2023-04-28T13:00:08.655Z,29.26
2023-04-28T13:02:36.090Z,30.59
2023-04-28T13:05:03.959Z,29.88
2023-04-28T13:07:32.000Z,30.12
2023-04-28T13:09:59.630Z,29.99
2023-04-28T13:12:26.587Z,30.18
2023-04-28T13:14:53.867Z,31.01
2023-04-28T13:17:21.141Z,31.64
2023-04-28T13:19:48.622Z,30.83
2023-04-28T13:22:16.179Z,30.83
2023-04-28T13:24:43.542Z,31.53
2023-04-28T13:27:11.469Z,31.05
2023-04-28T13:29:38.885Z,32.31
2023-04-28T13:32:06.514Z,32.48
2023-04-28T13:34:33.669Z,32.54
2023-04-28T13:37:01.023Z,33.41
2023-04-28T13:39:28.190Z,33.91
2023-04-28T13:41:55.595Z,33.96
2023-04-28T13:44:22.777Z,33.59
2023-04-28T13:46:50.130Z,33.04
2023-04-28T13:49:17.340Z,32.84
2023-04-28T13:51:45.797Z,33.15
2023-04-28T13:54:13.594Z,33.83
2023-04-28T13:56:41.670Z,34.30
2023-04-28T13:59:08.834Z,34.68
2023-04-28T14:01:36.209Z,34.48
2023-04-28T14:04:04.375Z,34.34
2023-04-28T14:06:32.967Z,34.31
2023-04-28T14:09:01.298Z,34.63
2023-04-28T14:11:29.089Z,34.18
2023-04-28T14:13:56.188Z,34.52
2023-04-28T14:16:23.353Z,34.34
2023-04-28T14:18:50.749Z,34.65
2023-04-28T14:21:17.979Z,34.83
2023-04-28T14:23:44.868Z,34.72
2023-04-28T14:26:12.050Z,35.25
2023-04-28T14:28:39.445Z,35.75
2023-04-28T14:31:08.945Z,36.00
2023-04-28T14:33:36.962Z,36.04
2023-04-28T14:36:05.303Z,35.97
2023-04-28T14:38:32.436Z,36.16
2023-04-28T14:41:00.020Z,36.52
2023-04-28T14:43:33.995Z,36.56
2023-04-28T14:46:01.971Z,36.69
2023-04-28T14:48:28.968Z,37.02
2023-04-28T14:50:55.890Z,36.90
2023-04-28T14:53:23.692Z,36.85
2023-04-28T14:55:51.006Z,37.13
2023-04-28T14:58:18.093Z,37.53
2023-04-28T15:00:45.041Z,37.54
2023-04-28T15:03:12.630Z,38.17
2023-04-28T15:05:40.504Z,37.88
2023-04-28T15:08:07.640Z,38.49
2023-04-28T15:10:38.798Z,38.12
2023-04-28T15:13:09.330Z,37.96
2023-04-28T15:15:36.782Z,38.43
2023-04-28T15:18:04.501Z,37.77
2023-04-28T15:20:37.234Z,37.93
2023-04-28T15:23:04.585Z,37.85
2023-04-28T15:25:31.549Z,37.59
2023-04-28T15:27:59.066Z,37.67
2023-04-28T15:30:26.418Z,37.75
2023-04-28T15:32:54.085Z,37.57
2023-04-28T15:35:22.164Z,37.83
2023-04-28T15:37:52.185Z,37.77
2023-04-28T15:40:21.375Z,38.01
2023-04-28T15:42:54.526Z,37.67
2023-04-28T15:45:22.568Z,38.26
2023-04-28T15:47:51.157Z,38.10
2023-04-28T15:50:20.314Z,38.49
2023-04-28T15:52:49.640Z,38.65
2023-04-28T15:55:18.070Z,38.65
2023-04-28T15:57:46.601Z,38.59
2023-04-28T16:00:15.621Z,38.46
2023-04-28T16:02:44.013Z,38.55
2023-04-28T16:05:11.982Z,38.79
2023-04-28T16:07:41.039Z,38.78
2023-04-28T16:10:10.838Z,38.93
2023-04-28T16:12:39.328Z,39.12
2023-04-28T16:15:07.362Z,39.17
2023-04-28T16:17:35.953Z,39.01
2023-04-28T16:20:05.403Z,39.35
2023-04-28T16:22:33.082Z,39.34
2023-04-28T16:25:04.182Z,39.69
2023-04-28T16:27:31.897Z,39.61
2023-04-28T16:30:00.077Z,39.71
2023-04-28T16:32:27.225Z,40.01
2023-04-28T16:34:57.575Z,40.22
2023-04-28T16:37:24.835Z,40.58
2023-04-28T16:39:52.569Z,40.63
2023-04-28T16:42:22.482Z,40.96
2023-04-28T16:44:52.449Z,40.86
2023-04-28T16:47:20.127Z,41.31
2023-04-28T16:49:47.375Z,41.57
2023-04-28T16:52:14.649Z,41.47
2023-04-28T16:54:42.001Z,41.78
2023-04-28T16:57:09.408Z,41.66
2023-04-28T16:59:44.627Z,42.19
2023-04-28T17:02:12.531Z,41.91
2023-04-28T17:04:40.581Z,41.87
2023-04-28T17:07:07.831Z,42.12
2023-04-28T17:09:34.833Z,42.25
2023-04-28T17:12:03.759Z,42.59
2023-04-28T17:14:31.080Z,43.47
2023-04-28T17:16:58.182Z,43.76
2023-04-28T17:19:25.176Z,43.93
2023-04-28T17:21:54.738Z,44.21
2023-04-28T17:24:21.732Z,44.25
2023-04-28T17:26:48.825Z,45.03
2023-04-28T17:29:16.392Z,45.47
2023-04-28T17:31:43.543Z,46.50
2023-04-28T17:34:10.901Z,47.53
2023-04-28T17:36:38.273Z,47.02
2023-04-28T17:39:05.547Z,47.57
2023-04-28T17:41:32.564Z,47.07
2023-04-28T17:43:59.549Z,47.60
2023-04-28T17:46:27.719Z,47.88
2023-04-28T17:48:54.764Z,48.32
2023-04-28T17:51:21.802Z,48.32
2023-04-28T17:53:49.074Z,48.37
2023-04-28T17:56:16.536Z,48.67
2023-04-28T17:58:43.728Z,48.94
2023-04-28T18:01:10.656Z,49.08
2023-04-28T18:03:38.780Z,49.03
2023-04-28T18:06:08.316Z,49.23
2023-04-28T18:08:36.891Z,49.50
2023-04-28T18:11:05.283Z,49.57
2023-04-28T18:13:33.556Z,51.44
2023-04-28T18:16:01.009Z,53.57
2023-04-28T18:18:30.274Z,55.42
2023-04-28T18:20:59.963Z,56.74
2023-04-28T18:23:30.609Z,58.55
2023-04-28T18:25:57.625Z,60.10
2023-04-28T18:28:25.044Z,61.01
2023-04-28T18:30:53.936Z,62.77
2023-04-28T18:33:23.446Z,62.70
2023-04-28T18:35:59.826Z,62.57
2023-04-28T18:38:27.153Z,63.82
2023-04-28T18:40:54.054Z,63.75
2023-04-28T18:43:23.839Z,64.61
2023-04-28T18:45:52.251Z,64.12
2023-04-28T18:48:21.788Z,63.00
2023-04-28T18:50:49.412Z,63.69
2023-04-28T18:53:17.831Z,64.67
2023-04-28T18:55:45.989Z,65.42
2023-04-28T18:58:15.477Z,63.89
2023-04-28T19:00:45.991Z,64.79
2023-04-28T19:03:17.105Z,67.09
2023-04-28T19:05:46.327Z,69.86
2023-04-28T19:08:13.620Z,70.15
2023-04-28T19:10:41.642Z,70.26
2023-04-28T19:13:08.997Z,69.82
2023-04-28T19:15:36.260Z,70.27
2023-04-28T19:18:05.359Z,71.02
2023-04-28T19:20:33.392Z,72.13
2023-04-28T19:23:02.148Z,73.58
2023-04-28T19:25:33.962Z,73.16
2023-04-28T19:28:01.732Z,72.41
2023-04-28T19:30:29.840Z,73.76
2023-04-28T19:32:57.674Z,73.11
2023-04-28T19:35:25.611Z,73.33
2023-04-28T19:37:55.215Z,74.30
2023-04-28T19:40:23.549Z,74.31
2023-04-28T19:42:52.152Z,75.58
2023-04-28T19:45:20.077Z,74.45
2023-04-28T19:47:47.373Z,74.48
2023-04-28T19:50:15.368Z,74.17
2023-04-28T19:52:42.858Z,74.57
2023-04-28T19:55:11.732Z,73.88
2023-04-28T19:57:39.086Z,73.76
2023-04-28T20:00:10.315Z,74.43
2023-04-28T20:02:38.677Z,74.60
2023-04-28T20:05:08.124Z,75.13
2023-04-28T20:07:39.342Z,75.97
2023-04-28T20:10:06.907Z,76.96
2023-04-28T20:12:34.543Z,77.30
2023-04-28T20:15:01.679Z,77.66
2023-04-28T20:17:29.278Z,77.11
2023-04-28T20:19:58.062Z,78.55
2023-04-28T20:22:26.060Z,78.97
2023-04-28T20:24:54.484Z,81.06
2023-04-28T20:27:22.997Z,81.27
2023-04-28T20:29:50.959Z,81.76
2023-04-28T20:32:19.354Z,82.79
2023-04-28T20:34:46.497Z,81.03
2023-04-28T20:37:14.266Z,80.53
2023-04-28T20:39:41.312Z,80.93
2023-04-28T20:42:09.182Z,81.10
2023-04-28T20:44:36.076Z,81.71
2023-04-28T20:47:03.652Z,81.72
2023-04-28T20:49:30.760Z,82.24
2023-04-28T20:52:06.076Z,83.92
2023-04-28T20:54:35.590Z,82.54
2023-04-28T20:57:04.774Z,81.65
2023-04-28T20:59:32.943Z,81.19
2023-04-28T21:02:15.215Z,80.49
2023-04-28T21:04:42.147Z,80.78
2023-04-28T21:07:09.002Z,81.25
2023-04-28T21:09:44.018Z,80.57
2023-04-28T21:12:11.231Z,80.25
2023-04-28T21:14:38.350Z,80.00
2023-04-28T21:17:05.569Z,80.23
2023-04-28T21:19:33.325Z,80.33
2023-04-28T21:22:00.700Z,80.57
2023-04-28T21:24:27.625Z,80.43
2023-04-28T21:26:54.414Z,81.33
2023-04-28T21:29:21.654Z,81.59
2023-04-28T21:31:49.207Z,82.34
2023-04-28T21:34:16.437Z,82.84
2023-04-28T21:36:43.297Z,84.65
2023-04-28T21:39:10.518Z,85.88
2023-04-28T21:41:38.564Z,87.62
2023-04-28T21:44:06.094Z,87.58
2023-04-28T21:46:34.432Z,87.77
2023-04-28T21:49:01.609Z,88.64
2023-04-28T21:51:29.337Z,89.72
2023-04-28T21:53:56.311Z,89.90
2023-04-28T21:56:23.136Z,90.64
2023-04-28T21:58:50.182Z,93.15
2023-04-28T22:01:18.541Z,94.44
2023-04-28T22:03:47.827Z,94.87
2023-04-28T22:06:14.919Z,94.24
2023-04-28T22:08:42.020Z,93.90
2023-04-28T22:11:09.714Z,94.89
2023-04-28T22:13:36.504Z,95.06
2023-04-28T22:16:04.403Z,96.88
2023-04-28T22:18:31.885Z,97.80
2023-04-28T22:20:59.239Z,97.25
2023-04-28T22:23:26.316Z,97.29
2023-04-28T22:25:53.410Z,96.98
2023-04-28T22:28:20.396Z,98.33
2023-04-28T22:30:47.660Z,98.44
2023-04-28T22:33:14.702Z,99.41
2023-04-28T22:35:41.941Z,100.00
2023-04-28T22:38:09.104Z,100.00
2023-04-28T22:40:36.592Z,99.43
2023-04-28T22:43:03.830Z,99.12
2023-04-28T22:45:30.735Z,99.52
2023-04-28T22:47:57.858Z,100.00
2023-04-28T22:50:25.256Z,100.00
2023-04-28T22:52:52.327Z,99.64
2023-04-28T22:55:20.009Z,99.54
2023-04-28T22:57:47.457Z,100.00
2023-04-28T23:00:17.692Z,100.00
2023-04-28T23:02:45.377Z,100.00
2023-04-28T23:05:12.485Z,100.00
2023-04-28T23:07:39.545Z,100.00
2023-04-28T23:10:07.923Z,100.00
2023-04-28T23:12:34.832Z,100.00
2023-04-28T23:15:02.135Z,100.00
2023-04-28T23:17:29.274Z,100.00
2023-04-28T23:19:56.400Z,100.00
2023-04-28T23:22:23.230Z,100.00
2023-04-28T23:24:50.096Z,100.00
2023-04-28T23:27:17.716Z,100.00
2023-04-28T23:29:44.637Z,100.00
2023-04-28T23:32:12.674Z,100.00
2023-04-28T23:34:41.780Z,100.00
2023-04-28T23:37:08.888Z,100.00
2023-04-28T23:39:35.863Z,100.00
2023-04-28T23:42:03.408Z,100.00
2023-04-28T23:44:30.266Z,100.00
2023-04-28T23:46:57.249Z,100.00
2023-04-28T23:49:24.666Z,100.00
2023-04-28T23:51:51.554Z,100.00
2023-04-28T23:54:18.454Z,100.00
2023-04-28T23:56:45.414Z,100.00
2023-04-28T23:59:12.308Z,100.00
